createdAt,value
2018-04-14T00:00:19.767Z,87.20
2018-04-14T00:02:47.298Z,87.00
2018-04-14T00:05:14.823Z,87.30
2018-04-14T00:07:42.355Z,87.10
2018-04-14T00:10:10.648Z,87.30
2018-04-14T00:12:38.997Z,87.60
2018-04-14T00:15:06.573Z,87.60
2018-04-14T00:17:34.907Z,88.40
2018-04-14T00:20:02.458Z,88.30
2018-04-14T00:22:29.965Z,88.40
2018-04-14T00:24:58.263Z,88.90
2018-04-14T00:27:25.768Z,88.90
2018-04-14T00:29:53.299Z,89.20
2018-04-14T00:32:20.831Z,89.00
2018-04-14T00:34:48.439Z,88.10
2018-04-14T00:37:15.992Z,88.30
2018-04-14T00:39:43.599Z,88.40
2018-04-14T00:42:11.918Z,88.60
2018-04-14T00:44:39.472Z,88.50
2018-04-14T00:47:07.015Z,88.60
2018-04-14T00:49:34.534Z,88.60
2018-04-14T00:52:02.878Z,89.10
2018-04-14T00:54:30.414Z,89.10
2018-04-14T00:56:57.931Z,88.90
2018-04-14T00:59:26.223Z,88.60
2018-04-14T01:01:53.744Z,88.50
2018-04-14T01:04:21.304Z,88.50
2018-04-14T01:06:48.892Z,88.60
2018-04-14T01:09:17.197Z,89.10
2018-04-14T01:11:44.739Z,89.00
2018-04-14T01:14:12.253Z,89.40
2018-04-14T01:16:39.799Z,90.10
2018-04-14T01:19:07.297Z,90.20
2018-04-14T01:21:34.851Z,90.70
2018-04-14T01:24:02.379Z,90.80
2018-04-14T01:26:29.911Z,90.90
2018-04-14T01:28:57.436Z,90.90
2018-04-14T01:31:25.728Z,90.90
2018-04-14T01:33:53.287Z,90.90
2018-04-14T01:36:20.852Z,91.00
2018-04-14T01:38:48.450Z,90.80
2018-04-14T01:41:16.398Z,90.80
2018-04-14T01:43:43.924Z,90.80
2018-04-14T01:46:11.434Z,90.80
2018-04-14T01:48:39.135Z,90.80
2018-04-14T01:51:07.426Z,90.80
2018-04-14T01:53:34.941Z,90.80
2018-04-14T01:56:02.532Z,90.70
2018-04-14T01:58:30.815Z,91.60
2018-04-14T02:00:58.366Z,91.60
2018-04-14T02:03:26.699Z,91.50
2018-04-14T02:05:54.277Z,91.50
2018-04-14T02:08:21.791Z,91.40
2018-04-14T02:10:49.405Z,91.30
2018-04-14T02:13:16.939Z,91.20
2018-04-14T02:15:44.449Z,91.00
2018-04-14T02:18:11.965Z,91.10
2018-04-14T02:20:39.475Z,91.10
2018-04-14T02:23:07.048Z,91.10
2018-04-14T02:25:34.579Z,91.10
2018-04-14T02:28:02.123Z,91.10
2018-04-14T02:30:30.447Z,91.20
2018-04-14T02:32:59.026Z,91.20
2018-04-14T02:35:26.591Z,91.30
2018-04-14T02:37:54.165Z,91.30
2018-04-14T02:40:21.900Z,91.50
2018-04-14T02:42:49.448Z,91.70
2018-04-14T02:45:16.997Z,91.70
2018-04-14T02:47:44.588Z,91.90
2018-04-14T02:50:12.154Z,92.10
2018-04-14T02:52:39.688Z,92.10
2018-04-14T02:55:07.204Z,92.10
2018-04-14T02:57:34.761Z,92.30
2018-04-14T03:00:03.140Z,92.70
2018-04-14T03:02:30.769Z,92.60
2018-04-14T03:04:58.307Z,92.70
2018-04-14T03:07:25.866Z,92.50
2018-04-14T03:09:53.378Z,92.40
2018-04-14T03:12:20.915Z,92.40
2018-04-14T03:14:48.456Z,92.40
2018-04-14T03:17:15.978Z,92.30
2018-04-14T03:19:44.371Z,92.30
2018-04-14T03:22:11.896Z,92.30
2018-04-14T03:24:39.454Z,92.40
2018-04-14T03:27:06.980Z,92.50
2018-04-14T03:29:34.527Z,92.30
2018-04-14T03:32:02.063Z,92.20
2018-04-14T03:34:29.581Z,91.80
2018-04-14T03:36:57.109Z,91.70
2018-04-14T03:39:24.601Z,91.60
2018-04-14T03:41:52.174Z,91.40
2018-04-14T03:44:19.702Z,91.40
2018-04-14T03:46:47.250Z,91.40
2018-04-14T03:49:14.787Z,91.40
2018-04-14T03:51:42.323Z,91.40
2018-04-14T03:54:09.952Z,91.80
2018-04-14T03:56:38.360Z,92.00
2018-04-14T03:59:06.654Z,92.10
2018-04-14T04:01:34.169Z,92.10
2018-04-14T04:04:01.732Z,92.00
2018-04-14T04:06:29.255Z,91.90
2018-04-14T04:08:56.816Z,92.00
2018-04-14T04:11:24.385Z,92.20
2018-04-14T04:13:51.947Z,92.10
2018-04-14T04:16:19.489Z,92.20
2018-04-14T04:18:58.947Z,92.10
2018-04-14T04:21:39.818Z,92.40
2018-04-14T04:24:19.079Z,92.70
2018-04-14T04:26:46.768Z,93.10
2018-04-14T04:29:14.305Z,93.40
2018-04-14T04:31:41.848Z,93.50
2018-04-14T04:34:10.138Z,93.50
2018-04-14T04:36:38.426Z,93.40
2018-04-14T04:39:05.969Z,93.40
2018-04-14T04:41:33.506Z,93.40
2018-04-14T04:44:01.048Z,93.40
2018-04-14T04:46:28.588Z,93.30
2018-04-14T04:48:56.220Z,93.20
2018-04-14T04:51:23.721Z,93.10
2018-04-14T04:53:51.306Z,92.70
2018-04-14T04:56:18.927Z,92.50
2018-04-14T04:58:46.441Z,92.30
2018-04-14T05:01:14.807Z,91.90
2018-04-14T05:03:43.088Z,91.90
2018-04-14T05:06:11.373Z,91.60
2018-04-14T05:08:39.723Z,91.30
2018-04-14T05:11:07.244Z,91.30
2018-04-14T05:13:34.766Z,91.10
2018-04-14T05:16:03.068Z,90.10
2018-04-14T05:18:30.574Z,90.10
2018-04-14T05:20:58.130Z,90.00
2018-04-14T05:23:25.737Z,88.90
2018-04-14T05:25:53.291Z,88.80
2018-04-14T05:28:20.912Z,88.60
2018-04-14T05:30:48.461Z,88.00
2018-04-14T05:33:15.995Z,86.90
2018-04-14T05:35:43.548Z,85.40
2018-04-14T05:38:11.109Z,84.20
2018-04-14T05:40:38.721Z,83.00
2018-04-14T05:43:06.275Z,82.60
2018-04-14T05:45:33.861Z,81.70
2018-04-14T05:48:02.150Z,82.40
2018-04-14T05:50:29.768Z,82.40
2018-04-14T05:52:57.328Z,81.80
2018-04-14T05:55:24.858Z,81.30
2018-04-14T05:57:52.396Z,80.60
2018-04-14T06:00:19.934Z,80.50
2018-04-14T06:02:47.457Z,80.70
2018-04-14T06:05:15.019Z,80.30
2018-04-14T06:07:42.549Z,79.20
2018-04-14T06:10:10.055Z,76.70
2018-04-14T06:12:37.616Z,72.60
2018-04-14T06:15:05.187Z,69.60
2018-04-14T06:17:33.724Z,66.80
2018-04-14T06:20:01.248Z,64.50
2018-04-14T06:22:28.835Z,62.10
2018-04-14T06:24:56.421Z,63.60
2018-04-14T06:27:23.980Z,63.30
2018-04-14T06:29:51.530Z,61.00
2018-04-14T06:32:19.083Z,59.80
2018-04-14T06:34:46.662Z,59.00
2018-04-14T06:37:14.233Z,58.20
2018-04-14T06:39:42.523Z,57.60
2018-04-14T06:42:10.267Z,57.60
2018-04-14T06:44:37.828Z,57.30
2018-04-14T06:47:06.570Z,55.70
2018-04-14T06:49:34.142Z,55.70
2018-04-14T06:52:01.696Z,54.70
2018-04-14T06:54:29.283Z,55.00
2018-04-14T06:56:57.618Z,54.30
2018-04-14T06:59:25.207Z,54.20
2018-04-14T07:01:52.771Z,55.60
2018-04-14T07:04:20.349Z,57.70
2018-04-14T07:06:47.916Z,58.20
2018-04-14T07:09:16.220Z,55.50
2018-04-14T07:11:43.816Z,55.40
2018-04-14T07:14:11.439Z,55.40
2018-04-14T07:16:38.984Z,56.30
2018-04-14T07:19:07.291Z,54.70
2018-04-14T07:21:34.829Z,54.80
2018-04-14T07:24:02.396Z,52.70
2018-04-14T07:26:29.984Z,51.60
2018-04-14T07:28:57.569Z,49.00
2018-04-14T07:31:25.117Z,47.60
2018-04-14T07:33:52.675Z,47.00
2018-04-14T07:36:20.294Z,47.70
2018-04-14T07:38:47.855Z,48.80
2018-04-14T07:41:15.452Z,47.70
2018-04-14T07:43:43.016Z,47.30
2018-04-14T07:46:10.557Z,45.80
2018-04-14T07:48:38.191Z,48.30
2018-04-14T07:51:05.728Z,45.70
2018-04-14T07:53:33.298Z,45.80
2018-04-14T07:56:00.847Z,47.10
2018-04-14T07:58:28.426Z,45.20
2018-04-14T08:00:56.159Z,43.40
2018-04-14T08:03:23.791Z,42.60
2018-04-14T08:05:51.833Z,42.00
2018-04-14T08:08:19.421Z,41.80
2018-04-14T08:10:47.805Z,42.50
2018-04-14T08:13:16.276Z,45.50
2018-04-14T08:15:43.808Z,45.40
2018-04-14T08:18:11.537Z,45.20
2018-04-14T08:20:39.065Z,43.60
2018-04-14T08:23:06.590Z,43.10
2018-04-14T08:25:34.206Z,43.70
2018-04-14T08:28:02.511Z,41.50
2018-04-14T08:30:30.180Z,41.50
2018-04-14T08:32:57.771Z,39.90
2018-04-14T08:35:25.386Z,39.60
2018-04-14T08:37:52.986Z,39.10
2018-04-14T08:40:20.575Z,39.10
2018-04-14T08:42:48.890Z,39.20
2018-04-14T08:45:16.460Z,39.00
2018-04-14T08:47:43.998Z,39.60
2018-04-14T08:50:11.549Z,38.80
2018-04-14T08:52:39.090Z,40.20
2018-04-14T08:55:07.436Z,37.80
2018-04-14T08:57:34.990Z,37.70
2018-04-14T09:00:02.554Z,37.90
2018-04-14T09:02:30.202Z,37.20
2018-04-14T09:04:57.756Z,37.80
2018-04-14T09:07:25.290Z,39.40
2018-04-14T09:09:52.889Z,38.30
2018-04-14T09:12:20.446Z,37.50
2018-04-14T09:14:48.045Z,36.40
2018-04-14T09:17:16.355Z,39.40
2018-04-14T09:19:43.872Z,39.30
2018-04-14T09:22:12.188Z,37.90
2018-04-14T09:24:39.697Z,37.90
2018-04-14T09:27:07.371Z,37.10
2018-04-14T09:29:35.785Z,34.00
2018-04-14T09:32:04.896Z,34.00
2018-04-14T09:34:32.433Z,34.60
2018-04-14T09:37:00.032Z,35.00
2018-04-14T09:39:27.549Z,35.50
2018-04-14T09:41:55.113Z,35.80
2018-04-14T09:44:22.642Z,34.80
2018-04-14T09:46:50.945Z,34.00
2018-04-14T09:49:18.504Z,34.00
2018-04-14T09:51:46.052Z,32.60
2018-04-14T09:54:13.700Z,31.30
2018-04-14T09:56:42.026Z,32.60
2018-04-14T09:59:09.599Z,32.50
2018-04-14T10:01:37.152Z,33.20
2018-04-14T10:04:04.719Z,33.30
2018-04-14T10:06:32.255Z,31.60
2018-04-14T10:08:59.794Z,31.00
2018-04-14T10:11:27.352Z,32.80
2018-04-14T10:13:54.893Z,32.70
2018-04-14T10:16:23.220Z,33.40
2018-04-14T10:18:50.757Z,33.50
2018-04-14T10:21:18.329Z,33.50
2018-04-14T10:23:45.891Z,29.40
2018-04-14T10:26:13.456Z,31.90
2018-04-14T10:28:41.009Z,31.40
2018-04-14T10:31:08.555Z,33.70
2018-04-14T10:33:36.077Z,33.60
2018-04-14T10:36:04.388Z,30.30
2018-04-14T10:38:31.912Z,30.30
2018-04-14T10:41:00.257Z,28.80
2018-04-14T10:43:27.830Z,28.80
2018-04-14T10:45:55.399Z,27.70
2018-04-14T10:48:22.975Z,28.20
2018-04-14T10:50:51.310Z,29.80
2018-04-14T10:53:18.866Z,29.90
2018-04-14T10:55:46.488Z,28.20
2018-04-14T10:58:14.054Z,29.10
2018-04-14T11:00:41.610Z,29.60
2018-04-14T11:03:09.149Z,30.80
2018-04-14T11:05:37.449Z,29.90
2018-04-14T11:08:04.982Z,29.90
2018-04-14T11:10:33.287Z,30.00
2018-04-14T11:13:00.863Z,30.00
2018-04-14T11:15:28.452Z,28.40
2018-04-14T11:17:56.014Z,26.90
2018-04-14T11:20:23.595Z,28.80
2018-04-14T11:22:51.908Z,28.40
2018-04-14T11:25:19.510Z,28.40
2018-04-14T11:27:47.107Z,28.60
2018-04-14T11:30:14.696Z,28.00
2018-04-14T11:32:42.225Z,28.70
2018-04-14T11:35:09.751Z,28.00
2018-04-14T11:37:37.322Z,28.00
2018-04-14T11:40:05.635Z,28.30
2018-04-14T11:42:33.230Z,28.40
2018-04-14T11:45:00.835Z,27.60
2018-04-14T11:47:29.008Z,26.80
2018-04-14T11:49:56.566Z,26.30
2018-04-14T11:52:24.080Z,27.40
2018-04-14T11:54:51.624Z,28.70
2018-04-14T11:57:20.761Z,28.90
2018-04-14T11:59:48.380Z,29.00
2018-04-14T12:02:15.923Z,30.00
2018-04-14T12:04:43.486Z,29.30
2018-04-14T12:07:11.136Z,28.40
2018-04-14T12:09:38.668Z,27.30
2018-04-14T12:12:08.331Z,28.60
2018-04-14T12:14:35.846Z,28.60
2018-04-14T12:17:04.166Z,27.40
2018-04-14T12:19:31.701Z,27.40
2018-04-14T12:21:59.229Z,26.70
2018-04-14T12:24:27.535Z,26.40
2018-04-14T12:26:55.109Z,26.30
2018-04-14T12:29:22.660Z,26.50
2018-04-14T12:31:50.191Z,27.80
2018-04-14T12:34:18.514Z,27.00
2018-04-14T12:36:46.183Z,26.90
2018-04-14T12:39:13.732Z,29.20
2018-04-14T12:41:41.333Z,29.10
2018-04-14T12:44:09.711Z,25.80
2018-04-14T12:46:37.323Z,25.80
2018-04-14T12:49:04.932Z,24.10
2018-04-14T12:51:33.275Z,26.40
2018-04-14T12:54:00.803Z,26.40
2018-04-14T12:56:28.452Z,27.10
2018-04-14T12:58:56.451Z,27.20
2018-04-14T13:01:24.116Z,26.90
2018-04-14T13:03:52.491Z,26.10
2018-04-14T13:06:20.081Z,26.10
2018-04-14T13:08:47.621Z,25.50
2018-04-14T13:11:15.377Z,26.10
2018-04-14T13:13:43.021Z,26.60
2018-04-14T13:16:10.750Z,27.80
2018-04-14T13:18:39.114Z,27.40
2018-04-14T13:21:07.552Z,29.10
2018-04-14T13:23:35.111Z,29.10
2018-04-14T13:26:02.694Z,29.90
2018-04-14T13:28:30.313Z,30.00
2018-04-14T13:30:58.000Z,30.80
2018-04-14T13:33:25.569Z,29.90
2018-04-14T13:35:53.116Z,27.60
2018-04-14T13:38:20.672Z,28.00
2018-04-14T13:40:48.233Z,26.60
2018-04-14T13:43:15.792Z,27.80
2018-04-14T13:45:43.342Z,27.40
2018-04-14T13:48:10.966Z,28.20
2018-04-14T13:50:38.577Z,27.50
2018-04-14T13:53:06.144Z,27.80
2018-04-14T13:55:33.702Z,29.50
2018-04-14T13:58:01.255Z,31.40
2018-04-14T14:00:28.866Z,33.10
2018-04-14T14:02:57.165Z,33.50
2018-04-14T14:05:24.790Z,33.40
2018-04-14T14:07:53.094Z,35.80
2018-04-14T14:10:20.806Z,35.10
2018-04-14T14:12:48.363Z,35.40
2018-04-14T14:15:15.912Z,35.60
2018-04-14T14:17:43.447Z,35.90
2018-04-14T14:20:11.049Z,35.40
2018-04-14T14:22:38.600Z,35.10
2018-04-14T14:25:06.147Z,32.70
2018-04-14T14:27:33.697Z,28.80
2018-04-14T14:30:01.282Z,28.70
2018-04-14T14:32:28.864Z,30.50
2018-04-14T14:34:57.258Z,32.50
2018-04-14T14:37:24.929Z,32.50
2018-04-14T14:39:52.483Z,33.40
2018-04-14T14:42:20.071Z,33.60
2018-04-14T14:44:47.593Z,34.30
2018-04-14T14:47:15.967Z,33.20
2018-04-14T14:49:43.573Z,33.20
2018-04-14T14:52:11.158Z,33.60
2018-04-14T14:54:38.855Z,33.70
2018-04-14T14:57:06.439Z,33.60
2018-04-14T14:59:34.181Z,33.30
2018-04-14T15:02:02.484Z,32.80
2018-04-14T15:04:30.041Z,32.70
2018-04-14T15:06:57.945Z,32.70
2018-04-14T15:09:25.544Z,32.90
2018-04-14T15:11:53.856Z,33.10
2018-04-14T15:14:21.388Z,33.00
2018-04-14T15:16:48.943Z,33.10
2018-04-14T15:19:16.565Z,32.70
2018-04-14T15:21:44.262Z,32.80
2018-04-14T15:24:11.992Z,33.90
2018-04-14T15:26:39.975Z,33.90
2018-04-14T15:29:07.838Z,33.60
2018-04-14T15:31:35.859Z,33.60
2018-04-14T15:34:04.022Z,32.90
2018-04-14T15:36:31.608Z,33.50
2018-04-14T15:38:59.903Z,32.50
2018-04-14T15:41:27.492Z,32.50
2018-04-14T15:43:55.037Z,33.60
2018-04-14T15:46:23.337Z,33.10
2018-04-14T15:48:50.861Z,33.10
2018-04-14T15:51:19.176Z,34.10
2018-04-14T15:53:46.758Z,33.50
2018-04-14T15:56:14.320Z,32.80
2018-04-14T15:58:41.863Z,32.70
2018-04-14T16:01:09.376Z,33.00
2018-04-14T16:03:44.628Z,32.70
2018-04-14T16:06:05.534Z,32.70
2018-04-14T16:08:33.852Z,32.60
2018-04-14T16:11:01.379Z,32.50
2018-04-14T16:13:28.928Z,32.60
2018-04-14T16:15:57.216Z,32.40
2018-04-14T16:18:24.776Z,32.30
2018-04-14T16:20:52.299Z,31.90
2018-04-14T16:23:19.830Z,31.40
2018-04-14T16:25:47.397Z,31.40
2018-04-14T16:28:14.938Z,31.50
2018-04-14T16:30:42.492Z,31.40
2018-04-14T16:33:10.095Z,31.60
2018-04-14T16:35:37.654Z,31.60
2018-04-14T16:38:05.198Z,31.30
2018-04-14T16:40:32.822Z,31.60
2018-04-14T16:43:00.452Z,31.80
2018-04-14T16:45:28.774Z,32.40
2018-04-14T16:47:56.324Z,32.40
2018-04-14T16:50:23.858Z,32.70
2018-04-14T16:52:52.212Z,32.60
2018-04-14T16:55:19.787Z,32.60
2018-04-14T16:57:47.328Z,33.00
2018-04-14T17:00:14.868Z,33.10
2018-04-14T17:02:42.435Z,33.80
2018-04-14T17:05:10.048Z,34.40
2018-04-14T17:07:37.580Z,33.90
2018-04-14T17:10:05.873Z,32.70
2018-04-14T17:12:33.492Z,32.60
2018-04-14T17:15:01.019Z,33.10
2018-04-14T17:17:28.575Z,33.30
2018-04-14T17:19:56.224Z,33.20
2018-04-14T17:22:23.753Z,33.40
2018-04-14T17:24:52.115Z,33.00
2018-04-14T17:27:19.668Z,33.00
2018-04-14T17:29:47.222Z,33.10
2018-04-14T17:32:14.760Z,33.80
2018-04-14T17:34:42.319Z,34.10
2018-04-14T17:37:10.005Z,34.30
2018-04-14T17:39:37.749Z,34.60
2018-04-14T17:42:06.351Z,35.10
2018-04-14T17:44:33.915Z,35.60
2018-04-14T17:47:01.481Z,36.60
2018-04-14T17:49:29.235Z,37.40
2018-04-14T17:51:56.845Z,38.00
2018-04-14T17:54:24.445Z,38.50
2018-04-14T17:56:52.021Z,38.90
2018-04-14T17:59:19.564Z,39.30
2018-04-14T18:01:47.888Z,40.00
2018-04-14T18:04:16.242Z,40.10
2018-04-14T18:06:43.808Z,40.10
2018-04-14T18:09:12.169Z,41.00
2018-04-14T18:11:39.716Z,41.00
2018-04-14T18:14:07.263Z,41.50
2018-04-14T18:16:34.880Z,41.80
2018-04-14T18:19:05.366Z,42.20
2018-04-14T18:21:33.206Z,42.70
2018-04-14T18:24:01.444Z,43.00
2018-04-14T18:26:29.780Z,43.70
2018-04-14T18:28:57.311Z,43.70
2018-04-14T18:31:24.878Z,44.00
2018-04-14T18:33:52.441Z,44.30
2018-04-14T18:36:20.052Z,44.50
2018-04-14T18:38:48.641Z,45.10
2018-04-14T18:41:16.219Z,45.10
2018-04-14T18:43:43.754Z,45.50
2018-04-14T18:46:12.124Z,46.00
2018-04-14T18:48:40.447Z,46.70
2018-04-14T18:51:08.032Z,46.70
2018-04-14T18:53:35.659Z,47.40
2018-04-14T18:56:03.222Z,47.60
2018-04-14T18:58:30.794Z,47.80
2018-04-14T19:00:58.326Z,48.30
2018-04-14T19:03:25.941Z,48.40
2018-04-14T19:05:53.502Z,48.80
2018-04-14T19:08:22.515Z,49.80
2018-04-14T19:10:50.942Z,50.10
2018-04-14T19:13:18.564Z,50.10
2018-04-14T19:15:46.955Z,50.20
2018-04-14T19:18:14.794Z,50.20
2018-04-14T19:20:43.120Z,50.30
2018-04-14T19:23:10.720Z,50.30
2018-04-14T19:25:39.175Z,50.80
2018-04-14T19:28:06.742Z,51.10
2018-04-14T19:30:35.050Z,51.60
2018-04-14T19:33:03.465Z,51.70
2018-04-14T19:35:30.999Z,51.60
2018-04-14T19:37:59.342Z,52.00
2018-04-14T19:40:26.958Z,52.00
2018-04-14T19:42:54.486Z,52.20
2018-04-14T19:45:22.794Z,52.50
2018-04-14T19:47:50.389Z,52.50
2018-04-14T19:50:17.997Z,52.70
2018-04-14T19:52:46.360Z,53.30
2018-04-14T19:55:14.001Z,53.30
2018-04-14T19:57:41.622Z,53.40
2018-04-14T20:00:09.243Z,53.40
2018-04-14T20:02:37.539Z,53.40
2018-04-14T20:05:05.118Z,53.40
2018-04-14T20:07:32.677Z,53.60
2018-04-14T20:10:00.355Z,53.90
2018-04-14T20:12:27.957Z,54.10
2018-04-14T20:14:56.239Z,54.60
2018-04-14T20:17:24.619Z,54.80
2018-04-14T20:19:53.106Z,55.10
2018-04-14T20:22:21.723Z,55.10
2018-04-14T20:24:49.495Z,55.10
2018-04-14T20:27:17.123Z,55.10
2018-04-14T20:29:44.672Z,55.10
2018-04-14T20:32:13.498Z,55.30
2018-04-14T20:34:41.054Z,55.30
2018-04-14T20:37:08.610Z,55.80
2018-04-14T20:39:36.418Z,55.80
2018-04-14T20:42:03.965Z,56.10
2018-04-14T20:44:33.989Z,56.50
2018-04-14T20:47:02.022Z,56.70
2018-04-14T20:49:30.014Z,56.90
2018-04-14T20:51:57.702Z,57.00
2018-04-14T20:54:25.423Z,56.80
2018-04-14T20:56:54.928Z,57.00
2018-04-14T20:59:22.789Z,56.90
2018-04-14T21:01:56.141Z,57.20
2018-04-14T21:04:23.817Z,57.30
2018-04-14T21:06:51.399Z,57.40
2018-04-14T21:09:18.953Z,57.60
2018-04-14T21:11:46.492Z,57.90
2018-04-14T21:14:14.122Z,58.10
2018-04-14T21:16:41.794Z,58.30
2018-04-14T21:19:09.336Z,58.60
2018-04-14T21:21:36.875Z,58.90
2018-04-14T21:24:04.439Z,59.30
2018-04-14T21:26:32.087Z,59.40
2018-04-14T21:28:59.673Z,59.10
2018-04-14T21:31:27.252Z,59.00
2018-04-14T21:33:55.005Z,59.00
2018-04-14T21:36:22.584Z,59.10
2018-04-14T21:38:50.987Z,59.50
2018-04-14T21:41:18.543Z,59.50
2018-04-14T21:43:46.078Z,59.60
2018-04-14T21:46:13.689Z,59.60
2018-04-14T21:48:41.243Z,59.80
2018-04-14T21:51:08.804Z,60.00
2018-04-14T21:53:36.381Z,60.10
2018-04-14T21:56:04.001Z,61.20
2018-04-14T21:58:31.567Z,61.60
2018-04-14T22:00:59.141Z,62.00
2018-04-14T22:03:26.695Z,63.20
2018-04-14T22:05:54.209Z,62.40
2018-04-14T22:08:21.836Z,63.80
2018-04-14T22:10:49.474Z,63.10
2018-04-14T22:13:17.016Z,63.30
2018-04-14T22:15:44.551Z,63.60
2018-04-14T22:18:12.875Z,64.00
2018-04-14T22:20:40.440Z,64.00
2018-04-14T22:23:07.981Z,63.90
2018-04-14T22:25:36.305Z,64.40
2018-04-14T22:28:03.879Z,64.40
2018-04-14T22:30:32.187Z,64.80
2018-04-14T22:32:59.752Z,64.80
2018-04-14T22:35:27.301Z,65.00
2018-04-14T22:37:54.873Z,64.90
2018-04-14T22:40:22.896Z,65.50
2018-04-14T22:42:50.457Z,65.80
2018-04-14T22:45:18.059Z,66.50
2018-04-14T22:47:45.601Z,66.50
2018-04-14T22:50:13.999Z,66.50
2018-04-14T22:52:41.559Z,66.40
2018-04-14T22:55:09.190Z,66.50
2018-04-14T22:57:37.473Z,66.90
2018-04-14T23:00:05.804Z,66.90
2018-04-14T23:02:33.335Z,66.90
2018-04-14T23:05:00.857Z,66.90
2018-04-14T23:07:29.166Z,66.60
2018-04-14T23:09:56.709Z,66.60
2018-04-14T23:12:24.285Z,66.70
2018-04-14T23:14:51.823Z,66.80
2018-04-14T23:17:19.476Z,67.50
2018-04-14T23:19:47.826Z,67.60
2018-04-14T23:22:15.382Z,67.60
2018-04-14T23:24:42.922Z,68.10
2018-04-14T23:27:10.552Z,68.20
2018-04-14T23:29:38.123Z,68.60
2018-04-14T23:32:05.661Z,68.40
2018-04-14T23:34:33.209Z,68.80
2018-04-14T23:37:00.749Z,68.70
2018-04-14T23:39:29.063Z,68.90
2018-04-14T23:41:56.632Z,68.80
2018-04-14T23:44:24.252Z,69.10
2018-04-14T23:46:52.587Z,69.40
2018-04-14T23:49:20.138Z,69.30
2018-04-14T23:51:47.713Z,69.60
2018-04-14T23:54:15.241Z,69.80
2018-04-14T23:56:42.804Z,69.70
2018-04-14T23:59:10.433Z,69.60
